createdAt,value
2023-02-12T00:00:15.781Z,75.81
2023-02-12T00:03:13.936Z,75.83
2023-02-12T00:05:43.753Z,75.75
2023-02-12T00:08:17.032Z,75.64
2023-02-12T00:10:48.467Z,75.51
2023-02-12T00:16:20.518Z,75.60
2023-02-12T00:19:01.546Z,75.56
2023-02-12T00:24:33.257Z,75.35
2023-02-12T00:27:02.725Z,75.37
2023-02-12T00:29:35.382Z,75.25
2023-02-12T00:32:14.577Z,75.16
2023-02-12T00:34:46.869Z,75.08
2023-02-12T00:37:22.874Z,75.08
2023-02-12T00:39:51.350Z,75.02
2023-02-12T00:42:29.515Z,75.00
2023-02-12T00:44:59.481Z,74.99
2023-02-12T00:47:29.777Z,74.89
2023-02-12T00:49:58.544Z,74.90
2023-02-12T00:52:27.663Z,74.84
2023-02-12T00:54:57.874Z,74.85
2023-02-12T00:57:27.195Z,74.84
2023-02-12T01:02:55.414Z,74.93
2023-02-12T01:05:29.604Z,74.95
2023-02-12T01:08:00.141Z,74.94
2023-02-12T01:10:31.700Z,75.07
2023-02-12T01:13:15.117Z,75.03
2023-02-12T01:15:48.967Z,75.00
2023-02-12T01:18:49.124Z,75.09
2023-02-12T01:21:56.443Z,75.26
2023-02-12T01:24:25.688Z,75.23
2023-02-12T01:26:55.363Z,75.30
2023-02-12T01:29:24.864Z,75.13
2023-02-12T01:31:53.596Z,75.10
2023-02-12T01:34:23.576Z,75.07
2023-02-12T01:36:52.940Z,75.14
2023-02-12T01:39:23.055Z,75.12
2023-02-12T01:42:06.309Z,75.10
2023-02-12T01:44:37.214Z,75.18
2023-02-12T01:47:07.171Z,75.27
2023-02-12T01:49:43.423Z,75.25
2023-02-12T01:52:33.173Z,75.28
2023-02-12T01:55:35.279Z,75.04
2023-02-12T01:58:06.534Z,74.99
2023-02-12T02:00:38.093Z,74.85
2023-02-12T02:03:07.620Z,74.79
2023-02-12T02:05:49.078Z,74.72
2023-02-12T02:08:18.880Z,74.82
2023-02-12T02:10:48.601Z,74.85
2023-02-12T02:13:51.733Z,74.98
2023-02-12T02:16:30.564Z,74.96
2023-02-12T02:19:12.105Z,74.94
2023-02-12T02:22:20.032Z,75.04
2023-02-12T02:25:37.789Z,75.09
2023-02-12T02:29:05.315Z,75.03
2023-02-12T02:32:03.593Z,75.15
2023-02-12T02:34:51.911Z,75.12
2023-02-12T02:37:29.597Z,75.09
2023-02-12T02:40:14.894Z,75.01
2023-02-12T02:42:52.237Z,74.90
2023-02-12T02:45:20.986Z,74.92
2023-02-12T02:48:00.525Z,74.93
2023-02-12T02:50:32.255Z,74.78
2023-02-12T02:53:04.275Z,74.86
2023-02-12T02:55:41.450Z,74.90
2023-02-12T02:58:15.203Z,74.89
2023-02-12T03:00:57.390Z,74.72
2023-02-12T03:04:01.357Z,74.71
2023-02-12T03:06:58.154Z,74.69
2023-02-12T03:09:37.449Z,74.64
2023-02-12T03:12:12.942Z,74.55
2023-02-12T03:14:57.881Z,74.55
2023-02-12T03:17:35.548Z,74.55
2023-02-12T03:20:13.299Z,74.46
2023-02-12T03:22:48.960Z,74.47
2023-02-12T03:25:25.112Z,74.41
2023-02-12T03:28:04.993Z,74.31
2023-02-12T03:30:51.724Z,74.32
2023-02-12T03:33:42.198Z,74.22
2023-02-12T03:36:29.439Z,74.15
2023-02-12T03:39:05.622Z,74.21
2023-02-12T03:41:55.485Z,74.18
2023-02-12T03:44:53.243Z,74.27
2023-02-12T03:47:34.247Z,74.19
2023-02-12T03:50:11.826Z,74.14
2023-02-12T03:52:40.691Z,74.09
2023-02-12T03:55:09.338Z,74.21
2023-02-12T03:57:43.123Z,74.24
2023-02-12T04:00:19.326Z,74.30
2023-02-12T04:02:49.110Z,74.20
2023-02-12T04:05:24.326Z,74.14
2023-02-12T04:07:55.739Z,74.18
2023-02-12T04:10:34.732Z,74.42
2023-02-12T04:13:16.582Z,74.48
2023-02-12T04:16:15.583Z,74.58
2023-02-12T04:18:46.852Z,74.56
2023-02-12T04:21:43.783Z,74.64
2023-02-12T04:24:20.214Z,74.68
2023-02-12T04:27:04.138Z,74.52
2023-02-12T04:29:50.686Z,74.55
2023-02-12T04:32:41.460Z,74.67
2023-02-12T04:35:24.444Z,74.75
2023-02-12T04:37:59.475Z,74.62
2023-02-12T04:40:28.512Z,74.60
2023-02-12T04:42:57.065Z,74.70
2023-02-12T04:45:31.450Z,74.83
2023-02-12T04:48:00.965Z,74.82
2023-02-12T04:50:39.711Z,74.88
2023-02-12T04:53:08.980Z,74.91
2023-02-12T04:55:37.805Z,74.90
2023-02-12T04:58:07.276Z,74.97
2023-02-12T05:00:35.965Z,75.00
2023-02-12T05:03:05.162Z,75.03
2023-02-12T05:05:33.589Z,75.31
2023-02-12T05:08:01.715Z,75.34
2023-02-12T05:10:29.832Z,75.26
2023-02-12T05:12:58.659Z,75.29
2023-02-12T05:15:27.294Z,75.27
2023-02-12T05:17:55.518Z,75.21
2023-02-12T05:20:23.752Z,75.20
2023-02-12T05:22:54.155Z,75.07
2023-02-12T05:25:23.019Z,74.99
2023-02-12T05:27:51.272Z,74.94
2023-02-12T05:30:19.790Z,75.02
2023-02-12T05:32:50.165Z,75.06
2023-02-12T05:35:20.713Z,75.11
2023-02-12T05:37:48.984Z,75.31
2023-02-12T05:40:17.473Z,75.43
2023-02-12T05:42:45.755Z,75.44
2023-02-12T05:45:14.229Z,75.45
2023-02-12T05:47:42.524Z,75.32
2023-02-12T05:50:11.155Z,75.45
2023-02-12T05:52:39.455Z,75.46
2023-02-12T05:55:08.332Z,75.42
2023-02-12T05:57:36.523Z,75.39
2023-02-12T06:00:07.117Z,75.35
2023-02-12T06:02:40.357Z,75.26
2023-02-12T06:05:08.959Z,75.18
2023-02-12T06:07:44.749Z,75.19
2023-02-12T06:10:13.268Z,75.21
2023-02-12T06:12:41.544Z,75.21
2023-02-12T06:15:10.773Z,75.16
2023-02-12T06:17:38.982Z,75.14
2023-02-12T06:20:08.289Z,75.14
2023-02-12T06:22:38.430Z,75.11
2023-02-12T06:25:07.102Z,75.16
2023-02-12T06:27:35.450Z,75.10
2023-02-12T06:30:04.010Z,75.08
2023-02-12T06:32:32.530Z,75.02
2023-02-12T06:35:00.655Z,74.90
2023-02-12T06:37:28.889Z,74.80
2023-02-12T06:39:57.083Z,74.72
2023-02-12T06:42:25.244Z,74.73
2023-02-12T06:44:53.531Z,74.75
2023-02-12T06:47:21.808Z,74.74
2023-02-12T06:49:50.057Z,74.75
2023-02-12T06:52:18.150Z,74.73
2023-02-12T06:54:46.283Z,74.97
2023-02-12T06:57:14.713Z,74.90
2023-02-12T06:59:42.922Z,74.77
2023-02-12T07:02:17.001Z,74.58
2023-02-12T07:04:45.349Z,74.38
2023-02-12T07:07:14.304Z,74.08
2023-02-12T07:09:42.449Z,74.09
2023-02-12T07:12:10.837Z,73.97
2023-02-12T07:14:39.329Z,73.67
2023-02-12T07:17:08.818Z,73.63
2023-02-12T07:19:45.435Z,73.29
2023-02-12T07:22:13.511Z,73.20
2023-02-12T07:24:41.946Z,72.75
2023-02-12T07:27:10.096Z,72.57
2023-02-12T07:29:38.295Z,72.45
2023-02-12T07:32:06.847Z,72.27
2023-02-12T07:34:34.997Z,71.87
2023-02-12T07:37:03.227Z,71.99
2023-02-12T07:39:31.512Z,71.85
2023-02-12T07:41:59.774Z,71.46
2023-02-12T07:44:28.013Z,71.14
2023-02-12T07:46:56.485Z,70.75
2023-02-12T07:49:24.707Z,70.01
2023-02-12T07:51:52.971Z,69.94
2023-02-12T07:54:21.325Z,69.88
2023-02-12T07:56:52.002Z,69.74
2023-02-12T07:59:20.800Z,69.59
2023-02-12T08:01:51.307Z,69.53
2023-02-12T08:04:30.250Z,69.53
2023-02-12T08:06:58.576Z,69.24
2023-02-12T08:09:30.981Z,68.86
2023-02-12T08:11:59.693Z,68.32
2023-02-12T08:14:28.113Z,68.27
2023-02-12T08:16:56.447Z,68.50
2023-02-12T08:19:26.597Z,68.36
2023-02-12T08:22:02.784Z,68.53
2023-02-12T08:24:31.552Z,68.37
2023-02-12T08:26:59.713Z,68.56
2023-02-12T08:29:30.688Z,68.52
2023-02-12T08:32:03.848Z,68.12
2023-02-12T08:34:34.321Z,67.90
2023-02-12T08:37:05.897Z,67.46
2023-02-12T08:39:34.205Z,67.03
2023-02-12T08:42:02.838Z,66.76
2023-02-12T08:44:31.115Z,66.07
2023-02-12T08:46:59.394Z,65.95
2023-02-12T08:49:30.402Z,65.32
2023-02-12T08:52:00.307Z,64.86
2023-02-12T08:54:38.669Z,65.71
2023-02-12T08:57:06.820Z,65.07
2023-02-12T08:59:34.923Z,64.78
2023-02-12T09:02:04.702Z,65.10
2023-02-12T09:04:34.361Z,65.04
2023-02-12T09:07:02.517Z,64.94
2023-02-12T09:09:30.788Z,65.21
2023-02-12T09:11:58.840Z,64.43
2023-02-12T09:14:27.090Z,63.78
2023-02-12T09:16:57.364Z,64.35
2023-02-12T09:19:25.972Z,64.66
2023-02-12T09:21:56.603Z,64.06
2023-02-12T09:24:33.169Z,63.77
2023-02-12T09:27:01.388Z,63.45
2023-02-12T09:29:29.655Z,63.73
2023-02-12T09:31:57.888Z,62.36
2023-02-12T09:34:25.952Z,62.14
2023-02-12T09:36:55.152Z,61.92
2023-02-12T09:39:23.309Z,61.53
2023-02-12T09:42:25.454Z,62.33
2023-02-12T09:45:07.499Z,62.15
2023-02-12T09:48:00.056Z,59.97
2023-02-12T09:50:55.476Z,59.68
2023-02-12T09:53:28.065Z,59.02
2023-02-12T09:55:57.129Z,57.87
2023-02-12T09:58:34.295Z,56.85
2023-02-12T10:01:12.719Z,54.67
2023-02-12T10:03:42.561Z,54.15
2023-02-12T10:06:17.502Z,52.79
2023-02-12T10:09:10.492Z,52.97
2023-02-12T10:12:12.844Z,51.73
2023-02-12T10:14:56.246Z,50.52
2023-02-12T10:17:32.796Z,50.27
2023-02-12T10:20:25.883Z,50.33
2023-02-12T10:22:57.554Z,49.77
2023-02-12T10:25:55.630Z,48.62
2023-02-12T10:28:26.764Z,48.80
2023-02-12T10:31:00.723Z,48.14
2023-02-12T10:33:45.613Z,48.13
2023-02-12T10:36:31.241Z,47.76
2023-02-12T10:39:15.620Z,47.95
2023-02-12T10:41:55.567Z,47.89
2023-02-12T10:44:26.282Z,47.80
2023-02-12T10:46:55.329Z,46.70
2023-02-12T10:50:21.411Z,46.19
2023-02-12T10:52:55.214Z,45.83
2023-02-12T10:55:37.056Z,45.68
2023-02-12T10:58:22.247Z,45.50
2023-02-12T11:00:59.638Z,45.45
2023-02-12T11:03:37.441Z,45.01
2023-02-12T11:06:30.608Z,45.26
2023-02-12T11:08:59.790Z,43.90
2023-02-12T11:11:31.663Z,44.37
2023-02-12T11:14:12.904Z,44.72
2023-02-12T11:16:52.576Z,44.77
2023-02-12T11:19:32.486Z,44.46
2023-02-12T11:22:06.704Z,44.53
2023-02-12T11:24:37.278Z,44.10
2023-02-12T11:27:40.604Z,43.46
2023-02-12T11:30:12.545Z,42.79
2023-02-12T11:32:41.000Z,42.47
2023-02-12T11:35:40.350Z,42.62
2023-02-12T11:38:34.542Z,42.79
2023-02-12T11:41:28.660Z,42.36
2023-02-12T11:43:57.181Z,42.30
2023-02-12T11:46:28.226Z,42.20
2023-02-12T11:49:05.838Z,41.12
2023-02-12T11:51:34.198Z,40.01
2023-02-12T11:54:06.441Z,40.66
2023-02-12T11:56:50.101Z,40.95
2023-02-12T11:59:27.945Z,41.34
2023-02-12T12:02:07.363Z,41.44
2023-02-12T12:04:37.779Z,41.48
2023-02-12T12:07:22.762Z,41.39
2023-02-12T12:09:57.244Z,40.87
2023-02-12T12:12:48.775Z,41.53
2023-02-12T12:15:49.634Z,41.67
2023-02-12T12:19:00.654Z,41.06
2023-02-12T12:21:42.259Z,40.50
2023-02-12T12:24:25.196Z,40.56
2023-02-12T12:27:46.099Z,41.05
2023-02-12T12:30:29.852Z,41.38
2023-02-12T12:33:04.845Z,41.25
2023-02-12T12:35:45.881Z,41.18
2023-02-12T12:38:41.248Z,41.42
2023-02-12T12:41:21.441Z,41.42
2023-02-12T12:43:56.029Z,41.45
2023-02-12T12:47:02.951Z,41.45
2023-02-12T12:50:09.585Z,41.27
2023-02-12T12:53:00.655Z,41.77
2023-02-12T12:56:05.157Z,41.77
2023-02-12T12:58:44.606Z,41.65
2023-02-12T13:01:25.491Z,41.02
2023-02-12T13:04:28.045Z,41.34
2023-02-12T13:07:24.079Z,41.61
2023-02-12T13:10:26.184Z,41.92
2023-02-12T13:12:57.646Z,42.03
2023-02-12T13:15:35.250Z,41.54
2023-02-12T13:18:31.465Z,41.54
2023-02-12T13:21:18.451Z,41.49
2023-02-12T13:23:58.482Z,41.73
2023-02-12T13:26:48.654Z,41.55
2023-02-12T13:29:25.463Z,41.39
2023-02-12T13:32:17.943Z,41.49
2023-02-12T13:34:46.993Z,41.64
2023-02-12T13:37:20.254Z,41.89
2023-02-12T13:39:51.051Z,42.26
2023-02-12T13:42:51.256Z,42.47
2023-02-12T13:45:38.740Z,42.53
2023-02-12T13:48:32.124Z,42.35
2023-02-12T13:51:25.361Z,42.74
2023-02-12T13:54:06.908Z,42.54
2023-02-12T13:56:57.968Z,42.81
2023-02-12T13:59:32.520Z,43.33
2023-02-12T14:02:04.758Z,43.37
2023-02-12T14:04:37.801Z,43.55
2023-02-12T14:07:07.743Z,43.41
2023-02-12T14:10:01.434Z,43.62
2023-02-12T14:12:39.818Z,43.44
2023-02-12T14:15:11.517Z,44.07
2023-02-12T14:17:42.242Z,44.18
2023-02-12T14:20:27.679Z,44.31
2023-02-12T14:23:22.936Z,44.84
2023-02-12T14:26:13.630Z,45.64
2023-02-12T14:28:47.747Z,46.07
2023-02-12T14:31:19.961Z,46.70
2023-02-12T14:34:12.844Z,47.27
2023-02-12T14:36:44.060Z,47.83
2023-02-12T14:39:29.149Z,48.31
2023-02-12T14:42:06.328Z,48.63
2023-02-12T14:44:47.583Z,48.93
2023-02-12T14:47:35.837Z,49.06
2023-02-12T14:50:24.150Z,49.36
2023-02-12T14:52:59.688Z,49.58
2023-02-12T14:55:40.422Z,50.04
2023-02-12T14:58:19.902Z,50.28
2023-02-12T15:00:58.791Z,50.87
2023-02-12T15:03:52.862Z,51.26
2023-02-12T15:06:33.019Z,51.77
2023-02-12T15:09:22.324Z,52.36
2023-02-12T15:12:07.731Z,52.75
2023-02-12T15:14:46.334Z,53.20
2023-02-12T15:17:22.459Z,53.79
2023-02-12T15:20:06.252Z,54.19
2023-02-12T15:22:39.221Z,54.79
2023-02-12T15:25:32.009Z,55.38
2023-02-12T15:28:37.694Z,56.23
2023-02-12T15:31:10.809Z,57.09
2023-02-12T15:33:50.600Z,57.12
2023-02-12T15:36:22.401Z,57.66
2023-02-12T15:38:58.241Z,57.84
2023-02-12T15:41:33.823Z,58.21
2023-02-12T15:44:24.036Z,59.06
2023-02-12T15:46:56.503Z,59.90
2023-02-12T15:49:32.874Z,60.59
2023-02-12T15:52:16.699Z,61.15
2023-02-12T15:54:49.620Z,62.23
2023-02-12T15:57:24.109Z,62.55
2023-02-12T15:59:54.703Z,63.30
2023-02-12T16:02:30.576Z,63.78
2023-02-12T16:05:02.530Z,64.46
2023-02-12T16:07:35.689Z,65.16
2023-02-12T16:10:05.582Z,65.27
2023-02-12T16:12:37.748Z,66.19
2023-02-12T16:15:06.262Z,66.83
2023-02-12T16:17:37.217Z,66.88
2023-02-12T16:20:25.688Z,67.42
2023-02-12T16:22:55.174Z,68.06
2023-02-12T16:25:25.661Z,68.39
2023-02-12T16:28:02.787Z,69.07
2023-02-12T16:30:39.524Z,69.58
2023-02-12T16:33:39.411Z,70.32
2023-02-12T16:36:12.114Z,70.72
2023-02-12T16:38:40.232Z,70.22
2023-02-12T16:41:27.766Z,69.54
2023-02-12T16:44:10.039Z,69.73
2023-02-12T16:46:48.395Z,70.85
2023-02-12T16:49:26.215Z,70.93
2023-02-12T16:52:35.428Z,71.17
2023-02-12T16:55:08.796Z,72.48
2023-02-12T16:57:37.172Z,73.51
2023-02-12T17:00:08.997Z,73.38
2023-02-12T17:02:37.530Z,73.37
2023-02-12T17:05:08.276Z,73.84
2023-02-12T17:07:45.464Z,73.84
2023-02-12T17:10:15.200Z,73.50
2023-02-12T17:12:49.599Z,74.37
2023-02-12T17:15:29.277Z,74.42
2023-02-12T17:17:57.902Z,74.57
2023-02-12T17:20:26.913Z,74.41
2023-02-12T17:22:58.486Z,74.99
2023-02-12T17:25:26.928Z,74.56
2023-02-12T17:27:55.221Z,74.00
2023-02-12T17:30:26.586Z,74.44
2023-02-12T17:32:55.459Z,75.42
2023-02-12T17:35:23.831Z,75.62
2023-02-12T17:37:53.058Z,75.65
2023-02-12T17:40:29.736Z,76.44
2023-02-12T17:42:59.539Z,77.88
2023-02-12T17:45:27.937Z,77.33
2023-02-12T17:47:56.174Z,77.97
2023-02-12T17:50:25.534Z,77.34
2023-02-12T17:52:54.536Z,76.73
2023-02-12T17:55:23.162Z,76.27
2023-02-12T17:57:54.622Z,76.66
2023-02-12T18:00:24.059Z,76.57
2023-02-12T18:02:52.555Z,76.46
2023-02-12T18:05:21.467Z,76.58
2023-02-12T18:07:49.941Z,77.05
2023-02-12T18:10:18.383Z,78.56
2023-02-12T18:12:46.630Z,78.74
2023-02-12T18:15:15.068Z,78.46
2023-02-12T18:17:43.520Z,78.13
2023-02-12T18:20:12.412Z,77.85
2023-02-12T18:22:40.596Z,77.60
2023-02-12T18:25:08.911Z,77.30
2023-02-12T18:27:39.799Z,77.31
2023-02-12T18:30:11.320Z,78.05
2023-02-12T18:32:47.481Z,78.58
2023-02-12T18:35:16.047Z,78.66
2023-02-12T18:37:44.447Z,78.93
2023-02-12T18:40:12.852Z,78.48
2023-02-12T18:42:41.162Z,78.93
2023-02-12T18:45:09.944Z,79.05
2023-02-12T18:47:38.282Z,78.77
2023-02-12T18:50:07.302Z,78.32
2023-02-12T18:52:37.465Z,77.95
2023-02-12T18:55:07.243Z,78.02
2023-02-12T18:57:35.642Z,77.73
2023-02-12T19:00:05.055Z,77.73
2023-02-12T19:02:43.574Z,78.28
2023-02-12T19:05:12.776Z,78.66
2023-02-12T19:07:41.138Z,78.73
2023-02-12T19:10:09.700Z,78.44
2023-02-12T19:12:38.267Z,78.27
2023-02-12T19:15:08.931Z,79.25
2023-02-12T19:17:37.140Z,79.83
2023-02-12T19:20:05.944Z,79.96
2023-02-12T19:22:34.287Z,80.03
2023-02-12T19:25:03.479Z,79.77
2023-02-12T19:27:32.001Z,80.00
2023-02-12T19:30:01.748Z,80.30
2023-02-12T19:32:38.852Z,80.17
2023-02-12T19:35:07.212Z,80.33
2023-02-12T19:37:35.623Z,80.61
2023-02-12T19:40:04.123Z,80.50
2023-02-12T19:42:33.958Z,81.14
2023-02-12T19:45:02.255Z,81.46
2023-02-12T19:47:30.469Z,82.10
2023-02-12T19:49:58.726Z,81.94
2023-02-12T19:52:27.101Z,81.83
2023-02-12T19:54:55.375Z,82.23
2023-02-12T19:57:23.765Z,82.68
2023-02-12T19:59:52.273Z,82.32
2023-02-12T20:02:21.318Z,81.88
2023-02-12T20:04:49.698Z,81.93
2023-02-12T20:07:17.971Z,82.59
2023-02-12T20:09:46.378Z,82.31
2023-02-12T20:12:14.611Z,82.48
2023-02-12T20:14:42.811Z,82.32
2023-02-12T20:17:11.038Z,82.11
2023-02-12T20:19:39.315Z,81.91
2023-02-12T20:22:07.693Z,81.89
2023-02-12T20:24:36.375Z,82.03
2023-02-12T20:27:13.353Z,82.05
2023-02-12T20:29:41.743Z,82.24
2023-02-12T20:32:11.263Z,82.14
2023-02-12T20:34:50.137Z,82.23
2023-02-12T20:37:26.770Z,82.25
2023-02-12T20:39:54.916Z,82.43
2023-02-12T20:42:23.170Z,82.49
2023-02-12T20:44:51.310Z,82.64
2023-02-12T20:47:19.801Z,82.84
2023-02-12T20:49:52.870Z,82.93
2023-02-12T20:52:21.765Z,82.91
2023-02-12T20:54:50.357Z,82.90
2023-02-12T20:57:18.768Z,83.01
2023-02-12T20:59:50.077Z,83.50
2023-02-12T21:02:18.784Z,83.74
2023-02-12T21:04:46.997Z,83.68
2023-02-12T21:07:15.437Z,83.71
2023-02-12T21:09:43.747Z,83.91
2023-02-12T21:12:12.122Z,83.89
2023-02-12T21:14:40.428Z,83.89
2023-02-12T21:17:08.715Z,83.71
2023-02-12T21:19:37.176Z,83.72
2023-02-12T21:22:05.980Z,83.65
2023-02-12T21:24:35.537Z,83.82
2023-02-12T21:27:03.987Z,83.80
2023-02-12T21:29:33.374Z,83.87
2023-02-12T21:32:12.060Z,83.93
2023-02-12T21:34:40.428Z,84.52
2023-02-12T21:37:08.751Z,84.88
2023-02-12T21:39:37.141Z,84.74
2023-02-12T21:42:05.518Z,85.06
2023-02-12T21:44:37.791Z,85.96
2023-02-12T21:47:07.434Z,86.08
2023-02-12T21:49:35.560Z,85.91
2023-02-12T21:52:06.824Z,85.68
2023-02-12T21:54:42.527Z,85.56
2023-02-12T21:57:11.712Z,85.48
2023-02-12T21:59:39.982Z,85.22
2023-02-12T22:02:09.835Z,85.17
2023-02-12T22:04:37.964Z,85.09
2023-02-12T22:07:06.003Z,85.18
2023-02-12T22:09:34.387Z,85.45
2023-02-12T22:12:02.620Z,85.47
2023-02-12T22:14:30.835Z,85.32
2023-02-12T22:16:59.156Z,85.30
2023-02-12T22:19:27.751Z,85.29
2023-02-12T22:21:56.006Z,85.32
2023-02-12T22:24:24.374Z,85.49
2023-02-12T22:26:54.881Z,85.64
2023-02-12T22:29:23.998Z,85.57
2023-02-12T22:31:52.480Z,85.83
2023-02-12T22:34:20.893Z,86.03
2023-02-12T22:36:49.154Z,85.99
2023-02-12T22:39:18.519Z,86.09
2023-02-12T22:41:46.896Z,86.49
2023-02-12T22:44:16.507Z,86.53
2023-02-12T22:46:45.112Z,86.55
2023-02-12T22:49:13.695Z,86.36
2023-02-12T22:51:42.411Z,86.13
2023-02-12T22:54:17.148Z,85.90
2023-02-12T22:56:50.597Z,85.84
2023-02-12T22:59:18.927Z,85.80
2023-02-12T23:01:47.206Z,86.12
2023-02-12T23:04:17.799Z,86.08
2023-02-12T23:06:46.955Z,86.07
2023-02-12T23:09:19.118Z,86.04
2023-02-12T23:11:48.490Z,85.90
2023-02-12T23:14:17.070Z,85.83
2023-02-12T23:16:46.058Z,85.75
2023-02-12T23:19:16.186Z,85.64
2023-02-12T23:21:49.707Z,85.57
2023-02-12T23:24:17.729Z,85.53
2023-02-12T23:26:45.980Z,85.43
2023-02-12T23:29:14.200Z,85.55
2023-02-12T23:31:42.524Z,85.55
2023-02-12T23:34:10.833Z,85.95
2023-02-12T23:36:38.946Z,86.54
2023-02-12T23:39:07.462Z,86.72
2023-02-12T23:41:35.842Z,87.34
2023-02-12T23:44:05.044Z,87.50
2023-02-12T23:46:33.387Z,87.71
2023-02-12T23:49:04.913Z,87.57
2023-02-12T23:51:33.265Z,87.14
2023-02-12T23:54:01.817Z,87.02
2023-02-12T23:56:30.134Z,87.17
2023-02-12T23:58:58.207Z,86.93
